Natal Air Force Base

SBNT · Rio Grande do Norte, Brésil

METAR anciennes SBNT · Augusto Severo Airport

Tu vois ci-dessous les METAR des derniers jours. Sélectionne une année pour parcourir les METAR plus anciens, à partir de l'année 2007.

14 avril 2024

Temps Code Temps Temp. Vue Base cloud Vent METAR/SPECI
00:00
V
27 °C 10 km+ - 210° 210° 5 kt METAR SBNT 140300Z 21005KT 9999 SCT019 27/25 Q1010

13 avril 2024

Temps Code Temps Temp. Vue Base cloud Vent METAR/SPECI
23:00
V
28 °C 10 km+ - 200° 200° 3 kt METAR SBNT 140200Z 20003KT 9999 SCT019 28/25 Q1011
22:00
V
27 °C 10 km+ - 150° 150° 4 kt METAR SBNT 140100Z 15004KT 9999 FEW020 27/25 Q1011
21:00
V
27 °C 10 km+ - 150° 150° 5 kt METAR SBNT 140000Z 15005KT 9999 FEW020 27/25 Q1011
20:00
V
28 °C 10 km+ - 140° 140° 5 kt METAR SBNT 132300Z 14005KT 110V180 9999 FEW025 28/25 Q1010
19:00
V
29 °C 10 km+ - 140° 140° 6 kt METAR SBNT 132200Z 14006KT 9999 FEW025 29/25 Q1010
18:00
V
29 °C 10 km+ - 120° 120° 10 kt METAR SBNT 132100Z 12010KT 9999 FEW030 29/25 Q1009
17:00
V
30 °C 10 km+ - 120° 120° 13 kt METAR SBNT 132000Z 12013KT 9999 FEW030 30/25 Q1009
16:00
V
31 °C 10 km+ - 120° 120° 14 kt METAR SBNT 131900Z 12014KT 9999 FEW030 31/24 Q1009
15:00
V
32 °C 10 km+ - 110° 110° 12 kt METAR SBNT 131800Z 11012KT 9999 FEW030 32/25 Q1008
14:00
V
32 °C 10 km+ - 120° 120° 12 kt METAR SBNT 131700Z 12012KT 9999 FEW030 32/24 Q1009
13:00
V
32 °C 10 km+ - 120° 120° 11 kt METAR SBNT 131600Z 12011KT 090V160 9999 FEW030 32/24 Q1009
12:00
V
32 °C 10 km+ - 120° 120° 12 kt METAR SBNT 131500Z 12012KT 090V150 9999 SCT030 32/24 Q1010
11:00
V
31 °C 10 km+ - 140° 140° 8 kt METAR SBNT 131400Z 14008KT 100V170 9999 SCT027 31/24 Q1011
10:00
V
31 °C 10 km+ - 160° 160° 7 kt METAR SBNT 131300Z 16007KT 110V200 9999 SCT023 31/25 Q1012
09:00
V
30 °C 10 km+ - 180° 180° 8 kt METAR SBNT 131200Z 18008KT 140V210 9999 SCT013 30/25 Q1012
08:00
V
28 °C 10 km+ - 190° 190° 7 kt METAR SBNT 131100Z 19007KT 9999 VCSH SCT019 FEW025TCU 28/25 Q1012
07:00
V
27 °C 10 km+ - 200° 200° 7 kt METAR SBNT 131000Z 20007KT 170V230 9999 VCSH FEW020 27/25 Q1011
06:00
V
25 °C 10 km+ - 210° 210° 5 kt METAR SBNT 130900Z 21005KT 9999 VCSH SCT016 25/25 Q1011
05:00
V
25 °C 10 km+ - 200° 200° 3 kt METAR SBNT 130800Z 20003KT 9999 SCT015 25/24 Q1010
04:00
V
25 °C 10 km+ - 210° 210° 3 kt METAR SBNT 130700Z 21003KT 9999 SCT015 25/25 Q1010
03:00
V
26 °C 10 km+ - 200° 200° 3 kt METAR SBNT 130600Z 20003KT 9999 FEW010 SCT016 26/25 Q1010
02:00
M
26 °C 10 km+ 1.600 ft 160° 160° 5 kt METAR SBNT 130500Z 16005KT 9999 SCT010 BKN016 26/25 Q1010
01:00
M
26 °C 10 km+ 1.600 ft 150° 150° 3 kt METAR SBNT 130400Z 15003KT 9999 BKN016 26/25 Q1010
00:00
M
26 °C 10 km+ 1.600 ft 160° 160° 2 kt METAR SBNT 130300Z 16002KT 9999 BKN016 26/25 Q1011

12 avril 2024

Temps Code Temps Temp. Vue Base cloud Vent METAR/SPECI
23:00
M
27 °C 10 km+ 1.600 ft 180° 180° 3 kt METAR SBNT 130200Z 18003KT 9999 BKN016 27/25 Q1011
22:00
M
27 °C 10 km+ 1.600 ft 160° 160° 3 kt METAR SBNT 130100Z 16003KT 9999 BKN016 27/25 Q1012
21:00
V
27 °C 10 km+ - 160° 160° 3 kt METAR SBNT 130000Z 16003KT 9999 SCT016 27/25 Q1011
20:00
V
27 °C 10 km+ - 110° 110° 4 kt METAR SBNT 122300Z 11004KT 9999 SCT019 27/25 Q1011
19:00
V
29 °C 10 km+ - 100° 100° 7 kt METAR SBNT 122200Z 10007KT 9999 FEW019 29/25 Q1010
18:00
V
28 °C 10 km+ - 100° 100° 8 kt METAR SBNT 122100Z 10008KT 9999 FEW021 28/25 Q1010
17:00
V
29 °C 10 km+ - 100° 100° 10 kt METAR SBNT 122000Z 10010KT 070V130 9999 FEW021 FEW027TCU 29/25 Q1009
16:00
V
30 °C 10 km+ - 100° 100° 11 kt METAR SBNT 121900Z 10011KT 080V140 9999 SCT021 FEW027TCU 30/26 Q1009
15:00
V
31 °C 10 km+ - 110° 110° 10 kt METAR SBNT 121800Z 11010KT 9999 SCT023 FEW030TCU 31/25 Q1009
14:00
V
32 °C 10 km+ - 100° 100° 12 kt METAR SBNT 121700Z 10012KT 070V140 9999 SCT023 FEW030TCU 32/25 Q1009
13:00
V
32 °C 10 km+ - 100° 100° 11 kt METAR SBNT 121600Z 10011KT 9999 VCSH SCT028 FEW033TCU 32/25 Q1010
12:00
V
32 °C 10 km+ - 100° 100° 8 kt METAR SBNT 121500Z 10008KT 050V140 9999 SCT028 FEW033TCU 32/24 Q1010
11:00
V
30 °C 10 km+ - 150° 150° 4 kt METAR SBNT 121400Z 15004KT 100V180 9999 VCSH SCT023 FEW030TCU 30/25 Q1011
10:00
M
29 °C 10 km+ 2.300 ft 150° 150° 6 kt METAR SBNT 121300Z 15006KT 120V180 9999 VCSH FEW020 BKN023 29/26 Q1012
09:00
M
30 °C 10 km+ 2.100 ft 120° 120° 6 kt METAR SBNT 121200Z 12006KT 080V170 9999 VCSH FEW016 BKN021 30/26 Q1012
08:00
M
29 °C 10 km+ 2.100 ft 190° 190° 3 kt METAR SBNT 121100Z 19003KT 110V250 9999 VCSH FEW013 BKN021 29/26 Q1012
07:00
V
27 °C 10 km+ - 190° 190° 4 kt METAR SBNT 121000Z 19004KT 150V240 9999 4000E -RA SCT021 SCT066 27/25 Q1011
06:00
V
26 °C 10 km+ - 140° 140° 4 kt METAR SBNT 120900Z 14004KT 100V170 9999 VCSH SCT019 SCT030 26/25 Q1011
05:00
V
26 °C 10 km+ - 210° 210° 6 kt METAR SBNT 120800Z 21006KT 9999 VCSH SCT018 FEW023TCU 26/25 Q1011
04:00
V
26 °C 10 km+ - 200° 200° 4 kt METAR SBNT 120700Z 20004KT 9999 SCT018 26/25 Q1010
03:00
V
26 °C 10 km+ - 140° 140° 6 kt METAR SBNT 120600Z 14006KT 9999 VCSH SCT018 26/25 Q1010
02:00
V
26 °C 10 km+ - 160° 160° 4 kt METAR SBNT 120500Z 16004KT 140V200 9999 VCSH SCT018 SCT090 26/25 Q1010
01:00
V
27 °C 10 km+ - 200° 200° 2 kt METAR SBNT 120400Z 20002KT 9999 VCSH SCT018 SCT100 27/25 Q1011
00:00
V
27 °C 10 km+ - 170° 170° 4 kt METAR SBNT 120300Z 17004KT 9999 SCT018 27/25 Q1011

11 avril 2024

Temps Code Temps Temp. Vue Base cloud Vent METAR/SPECI
23:00
V
27 °C 10 km+ - 180° 180° 2 kt METAR SBNT 120200Z 18002KT 9999 SCT018 27/25 Q1012
22:00
V
27 °C 10 km+ - 150° 150° 4 kt METAR SBNT 120100Z 15004KT 9999 FEW018 27/25 Q1012
21:00
V
28 °C 10 km+ - 110° 110° 4 kt METAR SBNT 120000Z 11004KT 080V140 9999 FEW018 SCT080 28/25 Q1012
20:00
V
28 °C 10 km+ 8.000 ft 140° 140° 4 kt METAR SBNT 112300Z 14004KT 9999 FEW018 BKN080 28/25 Q1012
19:00
V
28 °C 10 km+ - 100° 100° 6 kt METAR SBNT 112200Z 10006KT 9999 FEW018 28/25 Q1010
18:00
V
28 °C 10 km+ - 120° 120° 7 kt METAR SBNT 112100Z 12007KT 9999 FEW021 28/25 Q1010
17:00
V
29 °C 10 km+ - 120° 120° 9 kt METAR SBNT 112000Z 12009KT 9999 FEW023 29/25 Q1009
16:00
V
29 °C 10 km+ - 100° 100° 10 kt METAR SBNT 111900Z 10010KT 9999 VCSH FEW023 FEW026TCU 29/25 Q1009
15:00
V
30 °C 10 km+ - 110° 110° 10 kt METAR SBNT 111800Z 11010KT 070V150 9999 VCSH SCT025 FEW027TCU 30/25 Q1009
14:00
V
32 °C 10 km+ - 100° 100° 10 kt METAR SBNT 111700Z 10010KT 9999 VCSH SCT025 FEW027TCU 32/25 Q1009
13:00
V
32 °C 10 km+ - 120° 120° 10 kt METAR SBNT 111600Z 12010KT 9999 VCSH FEW025 FEW027TCU 32/25 Q1010
12:00
V
32 °C 10 km+ - 120° 120° 8 kt METAR SBNT 111500Z 12008KT 080V160 9999 VCSH FEW025 FEW027TCU 32/25 Q1010
11:00
V
32 °C 10 km+ - 150° 150° 6 kt METAR SBNT 111400Z 15006KT 120V180 9999 VCSH SCT023 FEW026TCU 32/25 Q1011
10:00
M
29 °C 10 km+ 2.200 ft 120° 120° 8 kt METAR SBNT 111300Z 12008KT 9999 VCSH BKN022 FEW025TCU 29/26 Q1012
09:00
M
30 °C 10 km+ 2.000 ft 210° 210° 6 kt METAR SBNT 111200Z 21006KT 160V260 9999 BKN020 30/24 Q1012
08:00
V
29 °C 10 km+ - Var Var 2 kt METAR SBNT 111100Z VRB02KT 9999 FEW013 SCT019 29/25 Q1012
07:00
V
27 °C 10 km+ - 230° 230° 4 kt METAR SBNT 111000Z 23004KT 200V260 9999 FEW020 FEW023TCU 27/25 Q1011
06:00
V
25 °C 10 km+ - 250° 250° 5 kt METAR SBNT 110900Z 25005KT 9999 FEW020 SCT100 25/24 Q1010
05:00
V
25 °C 10 km+ - 230° 230° 4 kt METAR SBNT 110800Z 23004KT 9999 FEW020 SCT080 25/25 Q1010
04:00
V
25 °C 10 km+ - 290° 290° 3 kt METAR SBNT 110700Z 29003KT 240V330 9999 FEW020 SCT080 25/24 Q1010
03:00
V
25 °C 10 km+ - 250° 250° 5 kt METAR SBNT 110600Z 25005KT 9999 VCTS FEW020 FEW025CB SCT050 25/25 Q1009
Signaler les modifications